Terminal Aerodrome Forecast
Issued by NWS

Home | Current Version | Previous Version | Text Only | Print | Product List | Glossary On
Versions: 1 2 3 4 5 6 7 8 9 10 11 12 13 14 15 16 17 18 19 20 21 22 23 24 25 26 27 28 29 30 31 32
000
FTUS43 KSGF 270500 CCA
TAFJLN
TAF COR
KJLN 270522Z 2706/2806 VRB05KT P6SM VCTS SCT050CB OVC250
      TEMPO 2706/2710 3SM TSRA OVC030CB
     FM271000 VRB05KT P6SM VCTS SCT035CB OVC250
     FM271100 20006KT P6SM BKN050=

USA.gov is the U.S. government's official web portal to all federal, state and local government web resources and services.